sensor_id;sensor_type;location;lat;lon;timestamp;P1;durP1;ratioP1;P2;durP2;ratioP2
21272;SDS011;36726;52.328;10.552;2022-11-20T00:01:19;18.38;;;8.93;;
21272;SDS011;36726;52.328;10.552;2022-11-20T00:03:48;18.50;;;9.02;;
21272;SDS011;36726;52.328;10.552;2022-11-20T00:06:17;15.80;;;8.82;;
21272;SDS011;36726;52.328;10.552;2022-11-20T00:08:44;19.30;;;8.98;;
21272;SDS011;36726;52.328;10.552;2022-11-20T00:11:18;17.70;;;8.75;;
21272;SDS011;36726;52.328;10.552;2022-11-20T00:13:47;16.05;;;7.97;;
21272;SDS011;36726;52.328;10.552;2022-11-20T00:16:16;13.73;;;8.07;;
21272;SDS011;36726;52.328;10.552;2022-11-20T00:18:45;17.45;;;8.00;;
21272;SDS011;36726;52.328;10.552;2022-11-20T00:21:13;15.50;;;8.77;;
21272;SDS011;36726;52.328;10.552;2022-11-20T00:23:41;14.75;;;7.90;;
21272;SDS011;36726;52.328;10.552;2022-11-20T00:26:10;14.23;;;7.20;;
21272;SDS011;36726;52.328;10.552;2022-11-20T00:28:39;14.02;;;7.80;;
21272;SDS011;36726;52.328;10.552;2022-11-20T00:31:10;15.57;;;8.10;;
21272;SDS011;36726;52.328;10.552;2022-11-20T00:33:39;14.55;;;8.27;;
21272;SDS011;36726;52.328;10.552;2022-11-20T00:36:07;16.15;;;7.68;;
21272;SDS011;36726;52.328;10.552;2022-11-20T00:38:35;13.25;;;7.38;;
21272;SDS011;36726;52.328;10.552;2022-11-20T00:41:06;12.27;;;7.32;;
21272;SDS011;36726;52.328;10.552;2022-11-20T00:43:34;12.60;;;7.53;;
21272;SDS011;36726;52.328;10.552;2022-11-20T00:48:30;13.43;;;6.63;;
21272;SDS011;36726;52.328;10.552;2022-11-20T00:50:57;11.13;;;6.55;;
21272;SDS011;36726;52.328;10.552;2022-11-20T00:53:24;15.90;;;7.25;;
21272;SDS011;36726;52.328;10.552;2022-11-20T00:55:52;13.45;;;7.05;;
21272;SDS011;36726;52.328;10.552;2022-11-20T00:58:28;13.00;;;6.88;;
21272;SDS011;36726;52.328;10.552;2022-11-20T01:01:04;13.45;;;6.57;;
21272;SDS011;36726;52.328;10.552;2022-11-20T01:03:38;15.13;;;7.03;;
21272;SDS011;36726;52.328;10.552;2022-11-20T01:06:09;11.57;;;6.32;;
21272;SDS011;36726;52.328;10.552;2022-11-20T01:08:37;12.23;;;6.32;;
21272;SDS011;36726;52.328;10.552;2022-11-20T01:11:06;10.85;;;6.50;;
21272;SDS011;36726;52.328;10.552;2022-11-20T01:13:35;13.52;;;6.18;;
21272;SDS011;36726;52.328;10.552;2022-11-20T01:16:04;11.50;;;6.30;;
21272;SDS011;36726;52.328;10.552;2022-11-20T01:18:31;13.18;;;6.05;;
21272;SDS011;36726;52.328;10.552;2022-11-20T01:21:02;11.75;;;6.15;;
21272;SDS011;36726;52.328;10.552;2022-11-20T01:23:34;15.98;;;7.07;;
21272;SDS011;36726;52.328;10.552;2022-11-20T01:26:07;11.52;;;6.18;;
21272;SDS011;36726;52.328;10.552;2022-11-20T01:28:36;17.05;;;7.03;;
21272;SDS011;36726;52.328;10.552;2022-11-20T01:31:10;10.07;;;6.05;;
21272;SDS011;36726;52.328;10.552;2022-11-20T01:33:39;11.18;;;5.97;;
21272;SDS011;36726;52.328;10.552;2022-11-20T01:36:07;9.32;;;5.80;;
21272;SDS011;36726;52.328;10.552;2022-11-20T01:38:35;10.85;;;5.68;;
21272;SDS011;36726;52.328;10.552;2022-11-20T01:41:02;12.02;;;6.47;;
21272;SDS011;36726;52.328;10.552;2022-11-20T01:43:30;15.95;;;6.20;;
21272;SDS011;36726;52.328;10.552;2022-11-20T01:46:02;15.07;;;6.45;;
21272;SDS011;36726;52.328;10.552;2022-11-20T01:51:33;9.65;;;5.22;;
21272;SDS011;36726;52.328;10.552;2022-11-20T01:54:06;11.30;;;6.05;;
21272;SDS011;36726;52.328;10.552;2022-11-20T01:56:39;14.68;;;6.45;;
21272;SDS011;36726;52.328;10.552;2022-11-20T01:59:10;10.13;;;5.35;;
21272;SDS011;36726;52.328;10.552;2022-11-20T02:01:42;13.65;;;6.50;;
21272;SDS011;36726;52.328;10.552;2022-11-20T02:04:08;11.50;;;6.55;;
21272;SDS011;36726;52.328;10.552;2022-11-20T02:06:47;11.88;;;6.18;;
21272;SDS011;36726;52.328;10.552;2022-11-20T02:09:16;11.95;;;6.63;;
21272;SDS011;36726;52.328;10.552;2022-11-20T02:11:43;11.25;;;5.85;;
21272;SDS011;36726;52.328;10.552;2022-11-20T02:14:09;9.85;;;5.93;;
21272;SDS011;36726;52.328;10.552;2022-11-20T02:16:37;11.63;;;5.85;;
21272;SDS011;36726;52.328;10.552;2022-11-20T02:19:14;9.70;;;5.72;;
21272;SDS011;36726;52.328;10.552;2022-11-20T02:24:42;11.77;;;5.75;;
21272;SDS011;36726;52.328;10.552;2022-11-20T02:27:12;12.15;;;6.40;;
21272;SDS011;36726;52.328;10.552;2022-11-20T02:29:48;12.48;;;6.18;;
21272;SDS011;36726;52.328;10.552;2022-11-20T02:32:20;12.00;;;6.38;;
21272;SDS011;36726;52.328;10.552;2022-11-20T02:34:54;10.85;;;5.70;;
21272;SDS011;36726;52.328;10.552;2022-11-20T02:37:21;11.35;;;6.20;;
21272;SDS011;36726;52.328;10.552;2022-11-20T02:39:50;11.32;;;5.93;;
21272;SDS011;36726;52.328;10.552;2022-11-20T02:42:18;11.93;;;6.50;;
21272;SDS011;36726;52.328;10.552;2022-11-20T02:44:45;12.85;;;6.05;;
21272;SDS011;36726;52.328;10.552;2022-11-20T02:47:11;11.23;;;5.88;;
21272;SDS011;36726;52.328;10.552;2022-11-20T02:49:38;11.85;;;6.20;;
21272;SDS011;36726;52.328;10.552;2022-11-20T02:52:05;13.73;;;6.50;;
21272;SDS011;36726;52.328;10.552;2022-11-20T02:54:31;11.65;;;6.18;;
21272;SDS011;36726;52.328;10.552;2022-11-20T02:56:58;9.13;;;5.68;;
21272;SDS011;36726;52.328;10.552;2022-11-20T02:59:24;11.35;;;5.75;;
21272;SDS011;36726;52.328;10.552;2022-11-20T03:01:51;9.32;;;5.85;;
21272;SDS011;36726;52.328;10.552;2022-11-20T03:04:18;12.77;;;6.72;;
21272;SDS011;36726;52.328;10.552;2022-11-20T03:06:45;11.38;;;6.35;;
21272;SDS011;36726;52.328;10.552;2022-11-20T03:09:11;11.25;;;6.07;;
21272;SDS011;36726;52.328;10.552;2022-11-20T03:11:38;11.27;;;6.60;;
21272;SDS011;36726;52.328;10.552;2022-11-20T03:14:05;11.00;;;6.10;;
21272;SDS011;36726;52.328;10.552;2022-11-20T03:16:32;10.20;;;6.25;;
21272;SDS011;36726;52.328;10.552;2022-11-20T03:18:59;10.75;;;6.75;;
21272;SDS011;36726;52.328;10.552;2022-11-20T03:21:26;11.40;;;6.15;;
21272;SDS011;36726;52.328;10.552;2022-11-20T03:23:53;10.07;;;6.20;;
21272;SDS011;36726;52.328;10.552;2022-11-20T03:26:22;12.10;;;6.38;;
21272;SDS011;36726;52.328;10.552;2022-11-20T03:28:51;13.02;;;6.80;;
21272;SDS011;36726;52.328;10.552;2022-11-20T03:31:20;11.30;;;6.03;;
21272;SDS011;36726;52.328;10.552;2022-11-20T03:33:49;15.13;;;6.50;;
21272;SDS011;36726;52.328;10.552;2022-11-20T03:36:16;13.82;;;6.43;;
21272;SDS011;36726;52.328;10.552;2022-11-20T03:38:44;11.00;;;6.35;;
21272;SDS011;36726;52.328;10.552;2022-11-20T03:41:13;12.15;;;6.57;;
21272;SDS011;36726;52.328;10.552;2022-11-20T03:43:46;12.00;;;6.35;;
21272;SDS011;36726;52.328;10.552;2022-11-20T03:46:24;10.95;;;7.00;;
21272;SDS011;36726;52.328;10.552;2022-11-20T03:48:51;12.90;;;6.65;;
21272;SDS011;36726;52.328;10.552;2022-11-20T03:51:19;12.93;;;6.68;;
21272;SDS011;36726;52.328;10.552;2022-11-20T03:53:48;11.32;;;5.88;;
21272;SDS011;36726;52.328;10.552;2022-11-20T03:56:17;12.68;;;6.95;;
21272;SDS011;36726;52.328;10.552;2022-11-20T03:58:45;13.82;;;6.50;;
21272;SDS011;36726;52.328;10.552;2022-11-20T04:01:16;12.68;;;6.20;;
21272;SDS011;36726;52.328;10.552;2022-11-20T04:03:45;13.50;;;6.50;;
21272;SDS011;36726;52.328;10.552;2022-11-20T04:06:13;11.25;;;6.43;;
21272;SDS011;36726;52.328;10.552;2022-11-20T04:08:41;12.27;;;6.40;;
21272;SDS011;36726;52.328;10.552;2022-11-20T04:11:10;11.25;;;5.65;;
21272;SDS011;36726;52.328;10.552;2022-11-20T04:13:36;14.02;;;7.43;;
21272;SDS011;36726;52.328;10.552;2022-11-20T04:16:04;14.30;;;6.70;;
21272;SDS011;36726;52.328;10.552;2022-11-20T04:18:31;9.57;;;5.65;;
21272;SDS011;36726;52.328;10.552;2022-11-20T04:20:58;12.68;;;6.35;;
21272;SDS011;36726;52.328;10.552;2022-11-20T04:23:25;11.93;;;6.72;;
21272;SDS011;36726;52.328;10.552;2022-11-20T04:25:54;11.98;;;6.53;;
21272;SDS011;36726;52.328;10.552;2022-11-20T04:28:21;13.43;;;6.80;;
21272;SDS011;36726;52.328;10.552;2022-11-20T04:30:50;14.13;;;7.03;;
21272;SDS011;36726;52.328;10.552;2022-11-20T04:33:16;10.10;;;5.70;;
21272;SDS011;36726;52.328;10.552;2022-11-20T04:35:43;13.52;;;6.70;;
21272;SDS011;36726;52.328;10.552;2022-11-20T04:38:13;10.73;;;6.20;;
21272;SDS011;36726;52.328;10.552;2022-11-20T04:40:40;14.85;;;6.68;;
21272;SDS011;36726;52.328;10.552;2022-11-20T04:43:06;12.32;;;6.70;;
21272;SDS011;36726;52.328;10.552;2022-11-20T04:45:33;12.63;;;6.20;;
21272;SDS011;36726;52.328;10.552;2022-11-20T04:48:00;8.77;;;5.53;;
21272;SDS011;36726;52.328;10.552;2022-11-20T04:50:27;12.55;;;6.47;;
21272;SDS011;36726;52.328;10.552;2022-11-20T04:52:53;12.80;;;6.47;;
21272;SDS011;36726;52.328;10.552;2022-11-20T04:55:20;14.70;;;6.93;;
21272;SDS011;36726;52.328;10.552;2022-11-20T04:57:49;16.05;;;6.65;;
21272;SDS011;36726;52.328;10.552;2022-11-20T05:00:17;13.40;;;6.65;;
21272;SDS011;36726;52.328;10.552;2022-11-20T05:02:43;11.65;;;6.75;;
21272;SDS011;36726;52.328;10.552;2022-11-20T05:05:10;12.52;;;6.70;;
21272;SDS011;36726;52.328;10.552;2022-11-20T05:07:37;13.10;;;5.93;;
21272;SDS011;36726;52.328;10.552;2022-11-20T05:10:03;13.35;;;7.10;;
21272;SDS011;36726;52.328;10.552;2022-11-20T05:12:31;12.73;;;6.97;;
21272;SDS011;36726;52.328;10.552;2022-11-20T05:14:58;13.75;;;6.97;;
21272;SDS011;36726;52.328;10.552;2022-11-20T05:17:24;12.73;;;6.97;;
21272;SDS011;36726;52.328;10.552;2022-11-20T05:19:51;12.50;;;6.78;;
21272;SDS011;36726;52.328;10.552;2022-11-20T05:22:18;11.82;;;6.35;;
21272;SDS011;36726;52.328;10.552;2022-11-20T05:24:45;11.57;;;6.25;;
21272;SDS011;36726;52.328;10.552;2022-11-20T05:27:12;11.60;;;6.90;;
21272;SDS011;36726;52.328;10.552;2022-11-20T05:29:38;10.48;;;6.00;;
21272;SDS011;36726;52.328;10.552;2022-11-20T05:32:05;11.80;;;6.22;;
21272;SDS011;36726;52.328;10.552;2022-11-20T05:34:33;14.18;;;7.10;;
21272;SDS011;36726;52.328;10.552;2022-11-20T05:39:12;13.60;;;6.82;;
21272;SDS011;36726;52.328;10.552;2022-11-20T05:41:38;13.40;;;6.50;;
21272;SDS011;36726;52.328;10.552;2022-11-20T05:44:04;10.43;;;6.40;;
21272;SDS011;36726;52.328;10.552;2022-11-20T05:46:30;11.10;;;6.22;;
21272;SDS011;36726;52.328;10.552;2022-11-20T05:48:56;11.27;;;5.90;;
21272;SDS011;36726;52.328;10.552;2022-11-20T05:51:23;14.18;;;6.45;;
21272;SDS011;36726;52.328;10.552;2022-11-20T05:53:50;11.65;;;6.28;;
21272;SDS011;36726;52.328;10.552;2022-11-20T05:56:17;13.75;;;6.50;;
21272;SDS011;36726;52.328;10.552;2022-11-20T05:58:45;13.75;;;6.65;;
21272;SDS011;36726;52.328;10.552;2022-11-20T06:03:54;12.43;;;6.45;;
21272;SDS011;36726;52.328;10.552;2022-11-20T06:06:20;12.68;;;6.88;;
21272;SDS011;36726;52.328;10.552;2022-11-20T06:08:46;11.80;;;6.22;;
21272;SDS011;36726;52.328;10.552;2022-11-20T06:11:13;13.02;;;6.55;;
21272;SDS011;36726;52.328;10.552;2022-11-20T06:13:40;11.77;;;6.38;;
21272;SDS011;36726;52.328;10.552;2022-11-20T06:16:08;13.23;;;7.20;;
21272;SDS011;36726;52.328;10.552;2022-11-20T06:18:35;12.20;;;6.60;;
21272;SDS011;36726;52.328;10.552;2022-11-20T06:21:05;12.25;;;6.68;;
21272;SDS011;36726;52.328;10.552;2022-11-20T06:23:41;11.93;;;6.40;;
21272;SDS011;36726;52.328;10.552;2022-11-20T06:26:23;9.77;;;6.00;;
21272;SDS011;36726;52.328;10.552;2022-11-20T06:28:51;12.23;;;6.55;;
21272;SDS011;36726;52.328;10.552;2022-11-20T06:31:18;10.70;;;6.30;;
21272;SDS011;36726;52.328;10.552;2022-11-20T06:33:46;10.20;;;6.03;;
21272;SDS011;36726;52.328;10.552;2022-11-20T06:36:14;10.98;;;6.00;;
21272;SDS011;36726;52.328;10.552;2022-11-20T06:38:41;12.57;;;6.97;;
21272;SDS011;36726;52.328;10.552;2022-11-20T06:41:15;12.43;;;6.68;;
21272;SDS011;36726;52.328;10.552;2022-11-20T06:43:43;12.32;;;6.72;;
21272;SDS011;36726;52.328;10.552;2022-11-20T06:46:10;14.35;;;6.53;;
21272;SDS011;36726;52.328;10.552;2022-11-20T06:48:38;11.07;;;6.40;;
21272;SDS011;36726;52.328;10.552;2022-11-20T06:51:07;12.82;;;7.05;;
21272;SDS011;36726;52.328;10.552;2022-11-20T06:53:34;12.70;;;6.30;;
21272;SDS011;36726;52.328;10.552;2022-11-20T06:56:02;10.85;;;6.57;;
21272;SDS011;36726;52.328;10.552;2022-11-20T06:58:30;8.68;;;5.47;;
21272;SDS011;36726;52.328;10.552;2022-11-20T07:00:58;11.82;;;5.82;;
21272;SDS011;36726;52.328;10.552;2022-11-20T07:03:26;12.23;;;6.45;;
21272;SDS011;36726;52.328;10.552;2022-11-20T07:05:55;11.75;;;6.57;;
21272;SDS011;36726;52.328;10.552;2022-11-20T07:08:23;11.35;;;6.55;;
21272;SDS011;36726;52.328;10.552;2022-11-20T07:10:50;13.15;;;6.70;;
21272;SDS011;36726;52.328;10.552;2022-11-20T07:13:17;12.68;;;6.55;;
21272;SDS011;36726;52.328;10.552;2022-11-20T07:15:43;15.00;;;7.15;;
21272;SDS011;36726;52.328;10.552;2022-11-20T07:18:10;13.18;;;6.60;;
21272;SDS011;36726;52.328;10.552;2022-11-20T07:20:37;13.73;;;6.15;;
21272;SDS011;36726;52.328;10.552;2022-11-20T07:23:04;11.43;;;6.47;;
21272;SDS011;36726;52.328;10.552;2022-11-20T07:25:30;10.82;;;6.28;;
21272;SDS011;36726;52.328;10.552;2022-11-20T07:27:57;8.95;;;6.07;;
21272;SDS011;36726;52.328;10.552;2022-11-20T07:30:25;11.50;;;6.13;;
21272;SDS011;36726;52.328;10.552;2022-11-20T07:32:53;12.07;;;6.28;;
21272;SDS011;36726;52.328;10.552;2022-11-20T07:35:22;11.85;;;6.57;;
21272;SDS011;36726;52.328;10.552;2022-11-20T07:37:49;10.65;;;6.10;;
21272;SDS011;36726;52.328;10.552;2022-11-20T07:40:16;13.82;;;6.95;;
21272;SDS011;36726;52.328;10.552;2022-11-20T07:42:47;12.70;;;6.40;;
21272;SDS011;36726;52.328;10.552;2022-11-20T07:45:15;11.27;;;6.15;;
21272;SDS011;36726;52.328;10.552;2022-11-20T07:47:43;10.60;;;6.45;;
21272;SDS011;36726;52.328;10.552;2022-11-20T07:50:10;10.27;;;6.30;;
21272;SDS011;36726;52.328;10.552;2022-11-20T07:52:37;10.57;;;6.32;;
21272;SDS011;36726;52.328;10.552;2022-11-20T07:55:04;11.65;;;6.72;;
21272;SDS011;36726;52.328;10.552;2022-11-20T07:57:31;13.40;;;6.88;;
21272;SDS011;36726;52.328;10.552;2022-11-20T07:59:58;11.27;;;5.95;;
21272;SDS011;36726;52.328;10.552;2022-11-20T08:02:25;10.15;;;6.28;;
21272;SDS011;36726;52.328;10.552;2022-11-20T08:04:51;12.00;;;6.60;;
21272;SDS011;36726;52.328;10.552;2022-11-20T08:07:18;15.43;;;7.22;;
21272;SDS011;36726;52.328;10.552;2022-11-20T08:09:45;12.30;;;6.53;;
21272;SDS011;36726;52.328;10.552;2022-11-20T08:12:18;13.30;;;6.97;;
21272;SDS011;36726;52.328;10.552;2022-11-20T08:15:05;10.60;;;6.07;;
21272;SDS011;36726;52.328;10.552;2022-11-20T08:17:38;11.63;;;6.35;;
21272;SDS011;36726;52.328;10.552;2022-11-20T08:20:05;10.77;;;7.00;;
21272;SDS011;36726;52.328;10.552;2022-11-20T08:22:32;17.45;;;6.82;;
21272;SDS011;36726;52.328;10.552;2022-11-20T08:24:58;9.70;;;6.10;;
21272;SDS011;36726;52.328;10.552;2022-11-20T08:27:25;11.77;;;6.70;;
21272;SDS011;36726;52.328;10.552;2022-11-20T08:29:52;11.05;;;6.50;;
21272;SDS011;36726;52.328;10.552;2022-11-20T08:32:19;15.75;;;7.47;;
21272;SDS011;36726;52.328;10.552;2022-11-20T08:34:45;17.88;;;7.93;;
21272;SDS011;36726;52.328;10.552;2022-11-20T08:37:12;15.60;;;8.43;;
21272;SDS011;36726;52.328;10.552;2022-11-20T08:39:39;14.73;;;8.25;;
21272;SDS011;36726;52.328;10.552;2022-11-20T08:42:08;21.88;;;10.52;;
21272;SDS011;36726;52.328;10.552;2022-11-20T08:44:35;15.02;;;8.43;;
21272;SDS011;36726;52.328;10.552;2022-11-20T08:47:02;16.35;;;7.40;;
21272;SDS011;36726;52.328;10.552;2022-11-20T08:49:28;10.90;;;6.60;;
21272;SDS011;36726;52.328;10.552;2022-11-20T08:51:56;14.10;;;7.60;;
21272;SDS011;36726;52.328;10.552;2022-11-20T08:54:23;14.05;;;8.18;;
21272;SDS011;36726;52.328;10.552;2022-11-20T08:56:50;12.45;;;6.75;;
21272;SDS011;36726;52.328;10.552;2022-11-20T08:59:17;12.98;;;7.03;;
21272;SDS011;36726;52.328;10.552;2022-11-20T09:02:05;10.90;;;6.55;;
21272;SDS011;36726;52.328;10.552;2022-11-20T09:04:32;9.35;;;5.82;;
21272;SDS011;36726;52.328;10.552;2022-11-20T09:06:59;14.05;;;6.40;;
21272;SDS011;36726;52.328;10.552;2022-11-20T09:09:28;12.15;;;6.70;;
21272;SDS011;36726;52.328;10.552;2022-11-20T09:11:55;11.90;;;6.80;;
21272;SDS011;36726;52.328;10.552;2022-11-20T09:14:22;12.18;;;6.85;;
21272;SDS011;36726;52.328;10.552;2022-11-20T09:16:51;11.13;;;6.13;;
21272;SDS011;36726;52.328;10.552;2022-11-20T09:19:18;11.52;;;6.05;;
21272;SDS011;36726;52.328;10.552;2022-11-20T09:22:05;17.80;;;7.60;;
21272;SDS011;36726;52.328;10.552;2022-11-20T09:24:32;15.35;;;8.18;;
21272;SDS011;36726;52.328;10.552;2022-11-20T09:27:01;16.65;;;8.82;;
21272;SDS011;36726;52.328;10.552;2022-11-20T09:29:29;14.75;;;8.95;;
21272;SDS011;36726;52.328;10.552;2022-11-20T09:31:56;11.27;;;6.28;;
21272;SDS011;36726;52.328;10.552;2022-11-20T09:34:23;11.25;;;6.20;;
21272;SDS011;36726;52.328;10.552;2022-11-20T09:36:50;11.95;;;6.05;;
21272;SDS011;36726;52.328;10.552;2022-11-20T09:39:17;10.80;;;6.32;;
21272;SDS011;36726;52.328;10.552;2022-11-20T09:49:46;14.25;;;7.65;;
21272;SDS011;36726;52.328;10.552;2022-11-20T09:55:06;11.68;;;6.50;;
21272;SDS011;36726;52.328;10.552;2022-11-20T09:57:37;12.38;;;6.55;;
21272;SDS011;36726;52.328;10.552;2022-11-20T10:00:11;13.45;;;7.03;;
21272;SDS011;36726;52.328;10.552;2022-11-20T10:02:44;10.13;;;5.78;;
21272;SDS011;36726;52.328;10.552;2022-11-20T10:05:19;10.98;;;6.00;;
21272;SDS011;36726;52.328;10.552;2022-11-20T10:07:52;9.38;;;5.60;;
21272;SDS011;36726;52.328;10.552;2022-11-20T10:10:28;10.07;;;6.30;;
21272;SDS011;36726;52.328;10.552;2022-11-20T10:15:46;13.48;;;6.05;;
21272;SDS011;36726;52.328;10.552;2022-11-20T10:21:30;12.70;;;6.32;;
21272;SDS011;36726;52.328;10.552;2022-11-20T10:29:34;17.85;;;8.05;;
21272;SDS011;36726;52.328;10.552;2022-11-20T10:32:07;15.20;;;8.02;;
21272;SDS011;36726;52.328;10.552;2022-11-20T10:34:52;19.13;;;8.75;;
21272;SDS011;36726;52.328;10.552;2022-11-20T10:37:25;15.88;;;8.68;;
21272;SDS011;36726;52.328;10.552;2022-11-20T10:42:45;14.38;;;6.82;;
21272;SDS011;36726;52.328;10.552;2022-11-20T10:50:36;11.75;;;6.88;;
21272;SDS011;36726;52.328;10.552;2022-11-20T10:56:19;15.32;;;8.18;;
21272;SDS011;36726;52.328;10.552;2022-11-20T11:01:24;21.83;;;9.10;;
21272;SDS011;36726;52.328;10.552;2022-11-20T11:03:53;30.17;;;14.82;;
21272;SDS011;36726;52.328;10.552;2022-11-20T11:06:39;38.97;;;19.90;;
21272;SDS011;36726;52.328;10.552;2022-11-20T11:09:16;11.95;;;6.65;;
21272;SDS011;36726;52.328;10.552;2022-11-20T11:11:48;13.20;;;7.15;;
21272;SDS011;36726;52.328;10.552;2022-11-20T11:14:15;12.23;;;6.53;;
21272;SDS011;36726;52.328;10.552;2022-11-20T11:16:48;14.13;;;7.68;;
21272;SDS011;36726;52.328;10.552;2022-11-20T11:19:20;13.32;;;6.20;;
21272;SDS011;36726;52.328;10.552;2022-11-20T11:21:48;11.52;;;6.25;;
21272;SDS011;36726;52.328;10.552;2022-11-20T11:24:25;10.77;;;5.75;;
21272;SDS011;36726;52.328;10.552;2022-11-20T11:27:12;9.15;;;5.63;;
21272;SDS011;36726;52.328;10.552;2022-11-20T11:29:43;13.57;;;7.50;;
21272;SDS011;36726;52.328;10.552;2022-11-20T11:32:14;12.90;;;6.93;;
21272;SDS011;36726;52.328;10.552;2022-11-20T11:34:58;12.73;;;7.47;;
21272;SDS011;36726;52.328;10.552;2022-11-20T11:37:29;12.13;;;7.03;;
21272;SDS011;36726;52.328;10.552;2022-11-20T11:40:01;11.75;;;6.68;;
21272;SDS011;36726;52.328;10.552;2022-11-20T11:42:51;14.18;;;6.97;;
21272;SDS011;36726;52.328;10.552;2022-11-20T11:45:21;12.75;;;6.03;;
21272;SDS011;36726;52.328;10.552;2022-11-20T11:47:48;11.45;;;6.00;;
21272;SDS011;36726;52.328;10.552;2022-11-20T11:50:19;12.45;;;5.95;;
21272;SDS011;36726;52.328;10.552;2022-11-20T11:58:47;8.52;;;5.10;;
21272;SDS011;36726;52.328;10.552;2022-11-20T12:03:44;12.90;;;5.47;;
21272;SDS011;36726;52.328;10.552;2022-11-20T12:06:28;10.60;;;5.90;;
21272;SDS011;36726;52.328;10.552;2022-11-20T12:09:02;10.50;;;5.78;;
21272;SDS011;36726;52.328;10.552;2022-11-20T12:11:37;9.98;;;5.18;;
21272;SDS011;36726;52.328;10.552;2022-11-20T12:14:54;8.60;;;5.40;;
21272;SDS011;36726;52.328;10.552;2022-11-20T12:17:07;10.43;;;5.20;;
21272;SDS011;36726;52.328;10.552;2022-11-20T12:19:37;8.50;;;4.97;;
21272;SDS011;36726;52.328;10.552;2022-11-20T12:43:33;6.78;;;4.80;;
21272;SDS011;36726;52.328;10.552;2022-11-20T12:46:37;9.32;;;4.88;;
21272;SDS011;36726;52.328;10.552;2022-11-20T12:49:34;8.38;;;4.93;;
21272;SDS011;36726;52.328;10.552;2022-11-20T13:00:55;9.20;;;4.88;;
21272;SDS011;36726;52.328;10.552;2022-11-20T13:03:50;10.15;;;5.47;;
21272;SDS011;36726;52.328;10.552;2022-11-20T13:06:19;11.05;;;5.30;;
21272;SDS011;36726;52.328;10.552;2022-11-20T13:08:55;6.45;;;3.97;;
21272;SDS011;36726;52.328;10.552;2022-11-20T13:19:49;9.55;;;4.88;;
21272;SDS011;36726;52.328;10.552;2022-11-20T13:22:28;7.75;;;4.72;;
21272;SDS011;36726;52.328;10.552;2022-11-20T13:24:56;6.90;;;4.18;;
21272;SDS011;36726;52.328;10.552;2022-11-20T13:27:23;11.15;;;6.03;;
21272;SDS011;36726;52.328;10.552;2022-11-20T13:30:12;9.45;;;5.28;;
21272;SDS011;36726;52.328;10.552;2022-11-20T13:32:48;8.18;;;4.88;;
21272;SDS011;36726;52.328;10.552;2022-11-20T13:35:33;7.47;;;4.50;;
21272;SDS011;36726;52.328;10.552;2022-11-20T13:38:11;8.88;;;4.47;;
21272;SDS011;36726;52.328;10.552;2022-11-20T13:40:53;8.07;;;4.50;;
21272;SDS011;36726;52.328;10.552;2022-11-20T13:45:59;9.55;;;5.10;;
21272;SDS011;36726;52.328;10.552;2022-11-20T13:48:31;8.65;;;4.95;;
21272;SDS011;36726;52.328;10.552;2022-11-20T13:56:46;9.30;;;5.05;;
21272;SDS011;36726;52.328;10.552;2022-11-20T14:01:59;11.45;;;5.45;;
21272;SDS011;36726;52.328;10.552;2022-11-20T14:04:30;9.43;;;5.10;;
21272;SDS011;36726;52.328;10.552;2022-11-20T14:07:01;11.00;;;5.75;;
21272;SDS011;36726;52.328;10.552;2022-11-20T14:09:33;11.80;;;5.70;;
21272;SDS011;36726;52.328;10.552;2022-11-20T14:12:01;10.90;;;5.38;;
21272;SDS011;36726;52.328;10.552;2022-11-20T14:14:30;10.85;;;6.13;;
21272;SDS011;36726;52.328;10.552;2022-11-20T14:19:55;9.18;;;5.10;;
21272;SDS011;36726;52.328;10.552;2022-11-20T14:22:30;8.43;;;4.93;;
21272;SDS011;36726;52.328;10.552;2022-11-20T14:25:01;9.82;;;5.85;;
21272;SDS011;36726;52.328;10.552;2022-11-20T14:27:28;15.25;;;6.22;;
21272;SDS011;36726;52.328;10.552;2022-11-20T14:29:55;11.25;;;5.85;;
21272;SDS011;36726;52.328;10.552;2022-11-20T14:32:23;9.35;;;5.53;;
21272;SDS011;36726;52.328;10.552;2022-11-20T14:35:09;8.30;;;5.38;;
21272;SDS011;36726;52.328;10.552;2022-11-20T14:39:26;11.30;;;5.22;;
21272;SDS011;36726;52.328;10.552;2022-11-20T14:41:57;8.95;;;5.25;;
21272;SDS011;36726;52.328;10.552;2022-11-20T14:44:26;12.13;;;5.97;;
21272;SDS011;36726;52.328;10.552;2022-11-20T14:46:59;9.50;;;5.70;;
21272;SDS011;36726;52.328;10.552;2022-11-20T14:49:26;10.35;;;5.60;;
21272;SDS011;36726;52.328;10.552;2022-11-20T14:51:59;12.63;;;5.97;;
21272;SDS011;36726;52.328;10.552;2022-11-20T14:54:27;10.52;;;5.25;;
21272;SDS011;36726;52.328;10.552;2022-11-20T14:56:55;12.13;;;5.60;;
21272;SDS011;36726;52.328;10.552;2022-11-20T15:02:05;9.18;;;5.72;;
21272;SDS011;36726;52.328;10.552;2022-11-20T15:04:44;11.13;;;6.07;;
21272;SDS011;36726;52.328;10.552;2022-11-20T15:07:11;12.60;;;6.25;;
21272;SDS011;36726;52.328;10.552;2022-11-20T15:09:37;18.25;;;7.10;;
21272;SDS011;36726;52.328;10.552;2022-11-20T15:12:04;16.88;;;8.30;;
21272;SDS011;36726;52.328;10.552;2022-11-20T15:14:30;11.63;;;6.90;;
21272;SDS011;36726;52.328;10.552;2022-11-20T15:16:58;14.85;;;7.45;;
21272;SDS011;36726;52.328;10.552;2022-11-20T15:19:25;11.68;;;6.60;;
21272;SDS011;36726;52.328;10.552;2022-11-20T15:24:45;12.02;;;7.10;;
21272;SDS011;36726;52.328;10.552;2022-11-20T15:27:11;12.07;;;7.05;;
21272;SDS011;36726;52.328;10.552;2022-11-20T15:29:37;23.45;;;10.88;;
21272;SDS011;36726;52.328;10.552;2022-11-20T15:32:03;18.80;;;9.77;;
21272;SDS011;36726;52.328;10.552;2022-11-20T15:34:37;13.35;;;7.50;;
21272;SDS011;36726;52.328;10.552;2022-11-20T15:37:03;15.23;;;7.43;;
21272;SDS011;36726;52.328;10.552;2022-11-20T15:39:29;16.20;;;8.50;;
21272;SDS011;36726;52.328;10.552;2022-11-20T15:41:55;14.05;;;7.13;;
21272;SDS011;36726;52.328;10.552;2022-11-20T15:44:20;17.65;;;8.25;;
21272;SDS011;36726;52.328;10.552;2022-11-20T15:46:53;15.00;;;9.13;;
21272;SDS011;36726;52.328;10.552;2022-11-20T15:49:19;23.48;;;11.75;;
21272;SDS011;36726;52.328;10.552;2022-11-20T15:51:47;19.38;;;10.80;;
21272;SDS011;36726;52.328;10.552;2022-11-20T15:54:16;15.45;;;8.68;;
21272;SDS011;36726;52.328;10.552;2022-11-20T15:56:48;14.55;;;8.88;;
21272;SDS011;36726;52.328;10.552;2022-11-20T15:59:15;17.17;;;9.88;;
21272;SDS011;36726;52.328;10.552;2022-11-20T16:01:41;19.02;;;9.93;;
21272;SDS011;36726;52.328;10.552;2022-11-20T16:04:11;16.27;;;9.07;;
21272;SDS011;36726;52.328;10.552;2022-11-20T16:09:19;17.85;;;7.88;;
21272;SDS011;36726;52.328;10.552;2022-11-20T16:11:45;13.60;;;7.82;;
21272;SDS011;36726;52.328;10.552;2022-11-20T16:14:11;14.65;;;7.60;;
21272;SDS011;36726;52.328;10.552;2022-11-20T16:16:56;12.63;;;7.97;;
21272;SDS011;36726;52.328;10.552;2022-11-20T16:19:22;13.95;;;7.38;;
21272;SDS011;36726;52.328;10.552;2022-11-20T16:21:48;16.98;;;8.25;;
21272;SDS011;36726;52.328;10.552;2022-11-20T16:24:14;14.70;;;8.05;;
21272;SDS011;36726;52.328;10.552;2022-11-20T16:26:41;16.20;;;8.30;;
21272;SDS011;36726;52.328;10.552;2022-11-20T16:29:07;11.38;;;7.15;;
21272;SDS011;36726;52.328;10.552;2022-11-20T16:31:33;14.65;;;7.72;;
21272;SDS011;36726;52.328;10.552;2022-11-20T16:34:00;15.65;;;7.65;;
21272;SDS011;36726;52.328;10.552;2022-11-20T16:36:28;11.48;;;7.47;;
21272;SDS011;36726;52.328;10.552;2022-11-20T16:38:54;14.90;;;8.25;;